sensor_id;sensor_type;location;lat;lon;timestamp;pressure;altitude;pressure_sealevel;temperature;humidity
22000;BME280;11164;48.818;2.322;2022-11-22T00:01:04;98586.31;;;6.62;52.43
22000;BME280;11164;48.818;2.322;2022-11-22T00:03:29;98586.47;;;6.67;52.22
22000;BME280;11164;48.818;2.322;2022-11-22T00:05:55;98582.81;;;6.61;52.30
22000;BME280;11164;48.818;2.322;2022-11-22T00:08:20;98576.41;;;6.62;52.27
22000;BME280;11164;48.818;2.322;2022-11-22T00:10:49;98566.97;;;6.60;52.08
22000;BME280;11164;48.818;2.322;2022-11-22T00:13:18;98582.88;;;6.54;52.58
22000;BME280;11164;48.818;2.322;2022-11-22T00:15:44;98595.09;;;6.50;52.38
22000;BME280;11164;48.818;2.322;2022-11-22T00:18:10;98580.50;;;6.46;52.83
22000;BME280;11164;48.818;2.322;2022-11-22T00:20:36;98574.69;;;6.49;52.44
22000;BME280;11164;48.818;2.322;2022-11-22T00:23:01;98582.06;;;6.54;52.38
22000;BME280;11164;48.818;2.322;2022-11-22T00:25:27;98580.81;;;6.57;52.22
22000;BME280;11164;48.818;2.322;2022-11-22T00:27:52;98573.56;;;6.57;52.22
22000;BME280;11164;48.818;2.322;2022-11-22T00:30:18;98573.50;;;6.45;52.38
22000;BME280;11164;48.818;2.322;2022-11-22T00:32:43;98566.72;;;6.43;52.22
22000;BME280;11164;48.818;2.322;2022-11-22T00:35:10;98565.69;;;6.44;52.46
22000;BME280;11164;48.818;2.322;2022-11-22T00:37:36;98560.34;;;6.44;52.36
22000;BME280;11164;48.818;2.322;2022-11-22T00:40:02;98567.31;;;6.45;52.57
22000;BME280;11164;48.818;2.322;2022-11-22T00:42:28;98565.25;;;6.65;52.07
22000;BME280;11164;48.818;2.322;2022-11-22T00:44:53;98565.63;;;6.50;52.24
22000;BME280;11164;48.818;2.322;2022-11-22T00:47:18;98571.38;;;6.54;52.07
22000;BME280;11164;48.818;2.322;2022-11-22T00:49:43;98568.00;;;6.59;52.21
22000;BME280;11164;48.818;2.322;2022-11-22T00:52:09;98569.88;;;6.58;51.85
22000;BME280;11164;48.818;2.322;2022-11-22T00:54:34;98566.97;;;6.60;51.80
22000;BME280;11164;48.818;2.322;2022-11-22T00:56:59;98561.91;;;6.51;52.04
22000;BME280;11164;48.818;2.322;2022-11-22T00:59:25;98571.81;;;6.51;52.04
22000;BME280;11164;48.818;2.322;2022-11-22T01:01:50;98574.25;;;6.52;51.86
22000;BME280;11164;48.818;2.322;2022-11-22T01:04:15;98580.28;;;6.66;51.49
22000;BME280;11164;48.818;2.322;2022-11-22T01:06:41;98568.22;;;6.57;52.05
22000;BME280;11164;48.818;2.322;2022-11-22T01:09:06;98582.59;;;6.63;51.70
22000;BME280;11164;48.818;2.322;2022-11-22T01:11:31;98565.09;;;6.60;51.49
22000;BME280;11164;48.818;2.322;2022-11-22T01:13:57;98573.13;;;6.60;51.88
22000;BME280;11164;48.818;2.322;2022-11-22T01:16:22;98568.69;;;6.54;51.85
22000;BME280;11164;48.818;2.322;2022-11-22T01:18:47;98573.19;;;6.53;51.92
22000;BME280;11164;48.818;2.322;2022-11-22T01:21:13;98577.63;;;6.66;51.85
22000;BME280;11164;48.818;2.322;2022-11-22T01:23:38;98568.38;;;6.62;51.91
22000;BME280;11164;48.818;2.322;2022-11-22T01:26:07;98570.25;;;6.62;51.82
22000;BME280;11164;48.818;2.322;2022-11-22T01:28:33;98567.94;;;6.84;51.45
22000;BME280;11164;48.818;2.322;2022-11-22T01:30:58;98568.09;;;6.89;51.68
22000;BME280;11164;48.818;2.322;2022-11-22T01:33:24;98563.69;;;6.95;51.38
22000;BME280;11164;48.818;2.322;2022-11-22T01:35:49;98559.97;;;6.96;51.41
22000;BME280;11164;48.818;2.322;2022-11-22T01:38:15;98554.44;;;7.09;51.06
22000;BME280;11164;48.818;2.322;2022-11-22T01:40:41;98562.19;;;6.99;51.25
22000;BME280;11164;48.818;2.322;2022-11-22T01:43:26;98559.84;;;6.90;52.04
22000;BME280;11164;48.818;2.322;2022-11-22T01:46:01;98550.44;;;6.81;51.80
22000;BME280;11164;48.818;2.322;2022-11-22T01:51:08;98563.84;;;6.81;51.89
22000;BME280;11164;48.818;2.322;2022-11-22T01:53:37;98561.78;;;6.83;52.19
22000;BME280;11164;48.818;2.322;2022-11-22T01:56:07;98555.50;;;6.89;52.03
22000;BME280;11164;48.818;2.322;2022-11-22T01:58:36;98554.41;;;6.79;52.14
22000;BME280;11164;48.818;2.322;2022-11-22T02:01:02;98565.63;;;6.87;52.34
22000;BME280;11164;48.818;2.322;2022-11-22T02:03:28;98560.78;;;6.96;51.74
22000;BME280;11164;48.818;2.322;2022-11-22T02:05:56;98557.81;;;7.04;51.61
22000;BME280;11164;48.818;2.322;2022-11-22T02:11:17;98567.13;;;6.83;52.59
22000;BME280;11164;48.818;2.322;2022-11-22T02:13:44;98560.72;;;6.84;52.53
22000;BME280;11164;48.818;2.322;2022-11-22T02:16:10;98563.47;;;6.96;52.04
22000;BME280;11164;48.818;2.322;2022-11-22T02:18:36;98548.13;;;6.85;52.34
22000;BME280;11164;48.818;2.322;2022-11-22T02:21:03;98549.41;;;6.82;52.40
22000;BME280;11164;48.818;2.322;2022-11-22T02:26:13;98533.19;;;6.77;52.72
22000;BME280;11164;48.818;2.322;2022-11-22T02:28:39;98535.94;;;6.70;52.52
22000;BME280;11164;48.818;2.322;2022-11-22T02:31:05;98535.81;;;6.65;52.78
22000;BME280;11164;48.818;2.322;2022-11-22T02:33:30;98518.63;;;6.54;52.82
22000;BME280;11164;48.818;2.322;2022-11-22T02:35:56;98516.97;;;6.53;52.84
22000;BME280;11164;48.818;2.322;2022-11-22T02:38:23;98518.34;;;6.63;52.53
22000;BME280;11164;48.818;2.322;2022-11-22T02:41:01;98522.41;;;6.65;52.74
22000;BME280;11164;48.818;2.322;2022-11-22T02:43:32;98516.59;;;6.50;53.06
22000;BME280;11164;48.818;2.322;2022-11-22T02:46:10;98520.72;;;6.52;53.16
22000;BME280;11164;48.818;2.322;2022-11-22T02:48:45;98520.78;;;6.46;53.44
22000;BME280;11164;48.818;2.322;2022-11-22T02:51:12;98505.97;;;6.62;52.97
22000;BME280;11164;48.818;2.322;2022-11-22T02:53:42;98515.81;;;6.68;52.96
22000;BME280;11164;48.818;2.322;2022-11-22T02:56:07;98512.47;;;6.54;53.22
22000;BME280;11164;48.818;2.322;2022-11-22T02:58:33;98501.44;;;6.62;52.98
22000;BME280;11164;48.818;2.322;2022-11-22T03:00:58;98493.91;;;6.71;52.65
22000;BME280;11164;48.818;2.322;2022-11-22T03:03:23;98488.66;;;6.64;52.88
22000;BME280;11164;48.818;2.322;2022-11-22T03:05:49;98496.63;;;6.52;53.37
22000;BME280;11164;48.818;2.322;2022-11-22T03:08:14;98504.72;;;6.46;53.31
22000;BME280;11164;48.818;2.322;2022-11-22T03:10:39;98503.69;;;6.47;53.48
22000;BME280;11164;48.818;2.322;2022-11-22T03:13:05;98493.88;;;6.59;53.10
22000;BME280;11164;48.818;2.322;2022-11-22T03:15:30;98489.38;;;6.71;53.04
22000;BME280;11164;48.818;2.322;2022-11-22T03:17:57;98488.31;;;6.72;53.11
22000;BME280;11164;48.818;2.322;2022-11-22T03:20:22;98490.41;;;6.89;52.70
22000;BME280;11164;48.818;2.322;2022-11-22T03:22:48;98482.50;;;6.94;52.46
22000;BME280;11164;48.818;2.322;2022-11-22T03:25:13;98484.03;;;7.02;52.26
22000;BME280;11164;48.818;2.322;2022-11-22T03:27:38;98488.69;;;6.95;52.72
22000;BME280;11164;48.818;2.322;2022-11-22T03:30:04;98493.53;;;6.86;52.92
22000;BME280;11164;48.818;2.322;2022-11-22T03:32:30;98484.81;;;6.90;53.13
22000;BME280;11164;48.818;2.322;2022-11-22T03:34:55;98482.56;;;7.06;52.32
22000;BME280;11164;48.818;2.322;2022-11-22T03:37:20;98493.28;;;7.06;52.44
22000;BME280;11164;48.818;2.322;2022-11-22T03:39:46;98495.34;;;7.04;52.62
22000;BME280;11164;48.818;2.322;2022-11-22T03:42:11;98486.94;;;7.00;52.92
22000;BME280;11164;48.818;2.322;2022-11-22T03:44:36;98492.38;;;6.93;52.97
22000;BME280;11164;48.818;2.322;2022-11-22T03:47:02;98491.22;;;6.89;53.01
22000;BME280;11164;48.818;2.322;2022-11-22T03:49:27;98491.56;;;6.93;53.33
22000;BME280;11164;48.818;2.322;2022-11-22T03:51:52;98493.66;;;6.91;53.65
22000;BME280;11164;48.818;2.322;2022-11-22T03:54:18;98489.22;;;7.15;53.04
22000;BME280;11164;48.818;2.322;2022-11-22T03:56:43;98495.78;;;7.31;52.74
22000;BME280;11164;48.818;2.322;2022-11-22T03:59:08;98489.50;;;7.25;52.75
22000;BME280;11164;48.818;2.322;2022-11-22T04:01:34;98494.25;;;7.23;52.78
22000;BME280;11164;48.818;2.322;2022-11-22T04:03:59;98494.03;;;7.25;53.02
22000;BME280;11164;48.818;2.322;2022-11-22T04:06:25;98492.16;;;7.25;52.86
22000;BME280;11164;48.818;2.322;2022-11-22T04:08:50;98489.72;;;7.24;52.95
22000;BME280;11164;48.818;2.322;2022-11-22T04:11:15;98484.81;;;7.21;53.17
22000;BME280;11164;48.818;2.322;2022-11-22T04:13:41;98489.84;;;7.29;52.74
22000;BME280;11164;48.818;2.322;2022-11-22T04:16:24;98489.75;;;7.36;52.53
22000;BME280;11164;48.818;2.322;2022-11-22T04:18:50;98490.91;;;7.40;52.63
22000;BME280;11164;48.818;2.322;2022-11-22T04:21:15;98489.31;;;7.39;52.80
22000;BME280;11164;48.818;2.322;2022-11-22T04:24:04;98487.03;;;7.24;53.30
22000;BME280;11164;48.818;2.322;2022-11-22T04:26:48;98473.44;;;7.37;53.21
22000;BME280;11164;48.818;2.322;2022-11-22T04:29:15;98471.78;;;7.36;53.01
22000;BME280;11164;48.818;2.322;2022-11-22T04:31:40;98463.97;;;7.35;53.08
22000;BME280;11164;48.818;2.322;2022-11-22T04:34:25;98461.16;;;7.29;53.22
22000;BME280;11164;48.818;2.322;2022-11-22T04:36:50;98462.84;;;7.42;53.10
22000;BME280;11164;48.818;2.322;2022-11-22T04:39:15;98458.75;;;7.40;53.09
22000;BME280;11164;48.818;2.322;2022-11-22T04:41:41;98452.00;;;7.49;52.90
22000;BME280;11164;48.818;2.322;2022-11-22T04:44:08;98453.97;;;7.54;52.93
22000;BME280;11164;48.818;2.322;2022-11-22T04:46:52;98452.34;;;7.53;52.81
22000;BME280;11164;48.818;2.322;2022-11-22T04:49:17;98446.63;;;7.49;53.16
22000;BME280;11164;48.818;2.322;2022-11-22T04:51:43;98462.03;;;7.54;52.85
22000;BME280;11164;48.818;2.322;2022-11-22T04:54:27;98462.28;;;7.76;52.31
22000;BME280;11164;48.818;2.322;2022-11-22T04:56:52;98458.69;;;7.70;52.82
22000;BME280;11164;48.818;2.322;2022-11-22T04:59:17;98462.28;;;7.64;52.57
22000;BME280;11164;48.818;2.322;2022-11-22T05:01:43;98461.25;;;7.65;52.98
22000;BME280;11164;48.818;2.322;2022-11-22T05:04:08;98470.69;;;7.67;52.97
22000;BME280;11164;48.818;2.322;2022-11-22T05:06:33;98465.22;;;7.86;52.22
22000;BME280;11164;48.818;2.322;2022-11-22T05:08:59;98462.69;;;7.91;52.17
22000;BME280;11164;48.818;2.322;2022-11-22T05:11:24;98450.19;;;7.97;51.88
22000;BME280;11164;48.818;2.322;2022-11-22T05:13:49;98454.53;;;7.98;51.79
22000;BME280;11164;48.818;2.322;2022-11-22T05:16:15;98457.44;;;7.96;51.81
22000;BME280;11164;48.818;2.322;2022-11-22T05:18:40;98464.53;;;8.02;52.12
22000;BME280;11164;48.818;2.322;2022-11-22T05:21:08;98458.25;;;8.09;52.01
22000;BME280;11164;48.818;2.322;2022-11-22T05:23:34;98451.94;;;7.91;52.38
22000;BME280;11164;48.818;2.322;2022-11-22T05:26:23;98453.66;;;7.85;52.64
22000;BME280;11164;48.818;2.322;2022-11-22T05:28:49;98442.22;;;7.90;52.20
22000;BME280;11164;48.818;2.322;2022-11-22T05:31:20;98460.53;;;7.81;52.90
22000;BME280;11164;48.818;2.322;2022-11-22T05:33:48;98461.13;;;7.83;52.55
22000;BME280;11164;48.818;2.322;2022-11-22T05:36:13;98448.41;;;7.67;52.69
22000;BME280;11164;48.818;2.322;2022-11-22T05:38:39;98441.41;;;7.66;53.10
22000;BME280;11164;48.818;2.322;2022-11-22T05:41:05;98457.03;;;7.57;53.45
22000;BME280;11164;48.818;2.322;2022-11-22T05:43:31;98451.53;;;7.52;53.07
22000;BME280;11164;48.818;2.322;2022-11-22T05:46:17;98440.47;;;7.48;53.66
22000;BME280;11164;48.818;2.322;2022-11-22T05:48:44;98460.03;;;7.37;53.48
22000;BME280;11164;48.818;2.322;2022-11-22T05:51:13;98464.72;;;7.54;53.12
22000;BME280;11164;48.818;2.322;2022-11-22T05:53:39;98464.91;;;7.40;53.57
22000;BME280;11164;48.818;2.322;2022-11-22T05:56:10;98467.59;;;7.40;53.88
22000;BME280;11164;48.818;2.322;2022-11-22T05:58:35;98467.38;;;7.42;53.86
22000;BME280;11164;48.818;2.322;2022-11-22T06:01:03;98478.81;;;7.37;54.12
22000;BME280;11164;48.818;2.322;2022-11-22T06:03:28;98472.59;;;7.25;54.48
22000;BME280;11164;48.818;2.322;2022-11-22T06:05:53;98468.22;;;7.42;53.93
22000;BME280;11164;48.818;2.322;2022-11-22T06:08:19;98465.41;;;7.37;53.96
22000;BME280;11164;48.818;2.322;2022-11-22T06:10:44;98449.56;;;7.47;53.84
22000;BME280;11164;48.818;2.322;2022-11-22T06:13:09;98456.22;;;7.57;53.60
22000;BME280;11164;48.818;2.322;2022-11-22T06:15:35;98453.06;;;7.60;53.04
22000;BME280;11164;48.818;2.322;2022-11-22T06:18:00;98459.25;;;7.60;53.12
22000;BME280;11164;48.818;2.322;2022-11-22T06:20:25;98449.78;;;7.69;53.13
22000;BME280;11164;48.818;2.322;2022-11-22T06:22:51;98457.84;;;7.69;53.43
22000;BME280;11164;48.818;2.322;2022-11-22T06:25:16;98455.41;;;7.68;53.21
22000;BME280;11164;48.818;2.322;2022-11-22T06:27:41;98458.31;;;7.55;53.59
22000;BME280;11164;48.818;2.322;2022-11-22T06:30:07;98450.81;;;7.45;53.95
22000;BME280;11164;48.818;2.322;2022-11-22T06:32:33;98460.38;;;7.53;54.01
22000;BME280;11164;48.818;2.322;2022-11-22T06:35:00;98473.25;;;7.74;53.50
22000;BME280;11164;48.818;2.322;2022-11-22T06:37:25;98481.53;;;7.84;53.47
22000;BME280;11164;48.818;2.322;2022-11-22T06:39:50;98467.75;;;7.69;53.77
22000;BME280;11164;48.818;2.322;2022-11-22T06:42:16;98471.00;;;7.59;55.13
22000;BME280;11164;48.818;2.322;2022-11-22T06:44:42;98469.41;;;7.82;53.58
22000;BME280;11164;48.818;2.322;2022-11-22T06:47:07;98471.72;;;7.78;53.50
22000;BME280;11164;48.818;2.322;2022-11-22T06:49:34;98468.94;;;7.73;53.40
22000;BME280;11164;48.818;2.322;2022-11-22T06:51:59;98466.94;;;7.80;53.29
22000;BME280;11164;48.818;2.322;2022-11-22T06:54:25;98460.22;;;8.01;52.88
22000;BME280;11164;48.818;2.322;2022-11-22T06:56:50;98478.28;;;7.94;53.78
22000;BME280;11164;48.818;2.322;2022-11-22T06:59:15;98480.03;;;7.88;53.85
22000;BME280;11164;48.818;2.322;2022-11-22T07:01:41;98473.75;;;7.95;53.85
22000;BME280;11164;48.818;2.322;2022-11-22T07:04:07;98493.66;;;7.87;54.19
22000;BME280;11164;48.818;2.322;2022-11-22T07:06:34;98487.59;;;7.80;54.23
22000;BME280;11164;48.818;2.322;2022-11-22T07:09:03;98478.63;;;7.86;53.92
22000;BME280;11164;48.818;2.322;2022-11-22T07:11:30;98477.22;;;7.83;53.89
22000;BME280;11164;48.818;2.322;2022-11-22T07:13:57;98484.84;;;8.10;53.52
22000;BME280;11164;48.818;2.322;2022-11-22T07:16:23;98491.72;;;8.06;53.57
22000;BME280;11164;48.818;2.322;2022-11-22T07:18:49;98498.00;;;7.88;54.17
22000;BME280;11164;48.818;2.322;2022-11-22T07:21:19;98485.03;;;7.85;54.31
22000;BME280;11164;48.818;2.322;2022-11-22T07:23:48;98480.47;;;7.85;54.50
22000;BME280;11164;48.818;2.322;2022-11-22T07:26:14;98497.97;;;7.76;54.78
22000;BME280;11164;48.818;2.322;2022-11-22T07:28:40;98511.91;;;7.97;53.82
22000;BME280;11164;48.818;2.322;2022-11-22T07:31:07;98513.41;;;8.04;53.81
22000;BME280;11164;48.818;2.322;2022-11-22T07:33:33;98516.53;;;7.90;54.26
22000;BME280;11164;48.818;2.322;2022-11-22T07:36:07;98523.19;;;7.87;54.30
22000;BME280;11164;48.818;2.322;2022-11-22T07:38:33;98535.06;;;7.67;54.68
22000;BME280;11164;48.818;2.322;2022-11-22T07:40:58;98535.09;;;7.37;55.88
22000;BME280;11164;48.818;2.322;2022-11-22T07:43:24;98529.88;;;7.42;55.77
22000;BME280;11164;48.818;2.322;2022-11-22T07:45:49;98554.63;;;6.96;57.18
22000;BME280;11164;48.818;2.322;2022-11-22T07:48:14;98531.19;;;7.21;56.30
22000;BME280;11164;48.818;2.322;2022-11-22T07:50:40;98525.38;;;6.76;57.53
22000;BME280;11164;48.818;2.322;2022-11-22T07:53:06;98502.00;;;6.83;56.96
22000;BME280;11164;48.818;2.322;2022-11-22T07:55:32;98518.69;;;7.15;55.82
22000;BME280;11164;48.818;2.322;2022-11-22T07:57:58;98528.13;;;7.18;55.93
22000;BME280;11164;48.818;2.322;2022-11-22T08:00:25;98528.34;;;7.16;56.19
22000;BME280;11164;48.818;2.322;2022-11-22T08:02:50;98518.09;;;7.43;55.39
22000;BME280;11164;48.818;2.322;2022-11-22T08:05:16;98529.88;;;7.42;55.70
22000;BME280;11164;48.818;2.322;2022-11-22T08:07:46;98546.31;;;7.58;56.12
22000;BME280;11164;48.818;2.322;2022-11-22T08:10:12;98529.53;;;7.50;55.41
22000;BME280;11164;48.818;2.322;2022-11-22T08:12:37;98536.31;;;7.53;55.72
22000;BME280;11164;48.818;2.322;2022-11-22T08:15:03;98532.44;;;7.49;56.23
22000;BME280;11164;48.818;2.322;2022-11-22T08:17:28;98536.00;;;7.61;56.04
22000;BME280;11164;48.818;2.322;2022-11-22T08:19:54;98531.34;;;7.68;55.54
22000;BME280;11164;48.818;2.322;2022-11-22T08:22:19;98543.13;;;7.79;55.33
22000;BME280;11164;48.818;2.322;2022-11-22T08:24:44;98540.19;;;7.69;55.41
22000;BME280;11164;48.818;2.322;2022-11-22T08:27:10;98549.88;;;7.70;55.55
22000;BME280;11164;48.818;2.322;2022-11-22T08:29:35;98553.81;;;7.67;55.74
22000;BME280;11164;48.818;2.322;2022-11-22T08:32:00;98551.63;;;7.76;55.68
22000;BME280;11164;48.818;2.322;2022-11-22T08:34:26;98555.03;;;7.83;55.19
22000;BME280;11164;48.818;2.322;2022-11-22T08:36:51;98544.81;;;8.04;54.56
22000;BME280;11164;48.818;2.322;2022-11-22T08:39:16;98557.44;;;8.15;54.50
22000;BME280;11164;48.818;2.322;2022-11-22T08:41:41;98560.47;;;8.07;54.62
22000;BME280;11164;48.818;2.322;2022-11-22T08:44:07;98560.25;;;8.20;54.25
22000;BME280;11164;48.818;2.322;2022-11-22T08:46:32;98567.09;;;8.04;55.23
22000;BME280;11164;48.818;2.322;2022-11-22T08:48:57;98562.66;;;8.22;54.38
22000;BME280;11164;48.818;2.322;2022-11-22T08:51:23;98558.44;;;7.91;55.47
22000;BME280;11164;48.818;2.322;2022-11-22T08:53:48;98560.81;;;8.11;55.20
22000;BME280;11164;48.818;2.322;2022-11-22T08:56:14;98565.72;;;8.26;54.46
22000;BME280;11164;48.818;2.322;2022-11-22T08:58:40;98555.00;;;8.26;54.44
22000;BME280;11164;48.818;2.322;2022-11-22T09:01:11;98574.56;;;8.50;54.39
22000;BME280;11164;48.818;2.322;2022-11-22T09:03:38;98568.63;;;8.36;54.32
22000;BME280;11164;48.818;2.322;2022-11-22T09:06:06;98577.75;;;8.23;55.30
22000;BME280;11164;48.818;2.322;2022-11-22T09:08:32;98563.72;;;8.44;54.79
22000;BME280;11164;48.818;2.322;2022-11-22T09:11:02;98548.78;;;8.37;55.02
22000;BME280;11164;48.818;2.322;2022-11-22T09:13:28;98569.19;;;8.73;54.11
22000;BME280;11164;48.818;2.322;2022-11-22T09:15:53;98574.84;;;8.36;55.47
22000;BME280;11164;48.818;2.322;2022-11-22T09:18:19;98574.69;;;8.67;54.74
22000;BME280;11164;48.818;2.322;2022-11-22T09:20:44;98580.28;;;8.53;54.94
22000;BME280;11164;48.818;2.322;2022-11-22T09:23:09;98582.97;;;8.53;54.64
22000;BME280;11164;48.818;2.322;2022-11-22T09:25:35;98589.66;;;8.62;54.96
22000;BME280;11164;48.818;2.322;2022-11-22T09:28:00;98591.53;;;8.50;55.03
22000;BME280;11164;48.818;2.322;2022-11-22T09:30:29;98574.66;;;8.90;53.93
22000;BME280;11164;48.818;2.322;2022-11-22T09:32:55;98590.22;;;8.76;54.25
22000;BME280;11164;48.818;2.322;2022-11-22T09:35:20;98587.91;;;9.09;54.02
22000;BME280;11164;48.818;2.322;2022-11-22T09:37:46;98579.13;;;8.85;54.50
22000;BME280;11164;48.818;2.322;2022-11-22T09:40:12;98594.06;;;8.80;54.83
22000;BME280;11164;48.818;2.322;2022-11-22T09:46:29;98593.38;;;8.61;54.51
22000;BME280;11164;48.818;2.322;2022-11-22T09:52:31;98593.72;;;9.17;52.87
22000;BME280;11164;48.818;2.322;2022-11-22T09:57:46;98581.78;;;9.25;53.44
22000;BME280;11164;48.818;2.322;2022-11-22T10:00:20;98580.34;;;9.46;53.51
22000;BME280;11164;48.818;2.322;2022-11-22T10:03:17;98586.34;;;9.65;51.46
22000;BME280;11164;48.818;2.322;2022-11-22T10:05:51;98587.28;;;9.59;51.78
22000;BME280;11164;48.818;2.322;2022-11-22T10:10:56;98600.31;;;9.79;52.21
22000;BME280;11164;48.818;2.322;2022-11-22T10:13:36;98592.75;;;9.64;52.06
22000;BME280;11164;48.818;2.322;2022-11-22T10:16:17;98614.56;;;9.63;51.25
22000;BME280;11164;48.818;2.322;2022-11-22T10:18:57;98600.16;;;10.03;52.27
22000;BME280;11164;48.818;2.322;2022-11-22T10:21:24;98596.72;;;10.07;52.66
22000;BME280;11164;48.818;2.322;2022-11-22T10:23:50;98596.81;;;10.46;51.80
22000;BME280;11164;48.818;2.322;2022-11-22T10:31:43;98602.69;;;10.09;50.38
22000;BME280;11164;48.818;2.322;2022-11-22T10:34:25;98613.56;;;10.65;51.33
22000;BME280;11164;48.818;2.322;2022-11-22T10:37:18;98606.91;;;10.73;51.47
22000;BME280;11164;48.818;2.322;2022-11-22T10:42:27;98614.75;;;10.41;51.27
22000;BME280;11164;48.818;2.322;2022-11-22T10:51:05;98617.56;;;10.29;52.14
22000;BME280;11164;48.818;2.322;2022-11-22T10:53:21;98624.25;;;10.60;49.08
22000;BME280;11164;48.818;2.322;2022-11-22T11:04:06;98622.81;;;10.92;50.21
22000;BME280;11164;48.818;2.322;2022-11-22T11:06:44;98638.56;;;11.00;48.91
22000;BME280;11164;48.818;2.322;2022-11-22T11:09:32;98631.69;;;10.92;50.60
22000;BME280;11164;48.818;2.322;2022-11-22T11:11:56;98662.47;;;10.96;48.55
22000;BME280;11164;48.818;2.322;2022-11-22T11:16:54;98634.09;;;10.88;50.69
22000;BME280;11164;48.818;2.322;2022-11-22T11:19:23;98645.22;;;10.41;48.12
22000;BME280;11164;48.818;2.322;2022-11-22T11:21:57;98639.84;;;10.41;49.57
22000;BME280;11164;48.818;2.322;2022-11-22T11:24:23;98636.78;;;10.55;50.70
22000;BME280;11164;48.818;2.322;2022-11-22T11:26:53;98636.13;;;10.47;50.24
22000;BME280;11164;48.818;2.322;2022-11-22T11:29:30;98640.59;;;10.93;47.67
22000;BME280;11164;48.818;2.322;2022-11-22T11:32:13;98633.19;;;10.83;47.59
22000;BME280;11164;48.818;2.322;2022-11-22T11:34:47;98650.13;;;10.78;49.03
22000;BME280;11164;48.818;2.322;2022-11-22T11:37:32;98643.09;;;10.77;47.53
22000;BME280;11164;48.818;2.322;2022-11-22T11:39:58;98633.22;;;11.27;49.08
22000;BME280;11164;48.818;2.322;2022-11-22T11:42:29;98643.88;;;11.39;48.69
22000;BME280;11164;48.818;2.322;2022-11-22T11:47:49;98649.66;;;11.03;49.17
22000;BME280;11164;48.818;2.322;2022-11-22T11:50:23;98643.34;;;10.76;46.98
22000;BME280;11164;48.818;2.322;2022-11-22T11:52:50;98627.19;;;10.98;49.31
22000;BME280;11164;48.818;2.322;2022-11-22T11:55:18;98629.59;;;11.66;48.08
22000;BME280;11164;48.818;2.322;2022-11-22T11:57:44;98620.53;;;11.50;48.39
22000;BME280;11164;48.818;2.322;2022-11-22T12:00:33;98637.75;;;11.21;45.90
22000;BME280;11164;48.818;2.322;2022-11-22T12:03:00;98641.31;;;11.27;48.57
22000;BME280;11164;48.818;2.322;2022-11-22T12:05:31;98633.22;;;10.66;49.67
22000;BME280;11164;48.818;2.322;2022-11-22T12:07:57;98648.59;;;11.49;47.27
22000;BME280;11164;48.818;2.322;2022-11-22T12:10:32;98643.38;;;11.64;44.84
22000;BME280;11164;48.818;2.322;2022-11-22T12:24:39;98664.31;;;11.57;43.97
22000;BME280;11164;48.818;2.322;2022-11-22T12:27:11;98640.81;;;11.52;47.57
22000;BME280;11164;48.818;2.322;2022-11-22T12:29:39;98665.16;;;11.35;47.30
22000;BME280;11164;48.818;2.322;2022-11-22T12:32:31;98666.03;;;11.41;45.36
22000;BME280;11164;48.818;2.322;2022-11-22T12:35:04;98667.69;;;11.42;47.65
22000;BME280;11164;48.818;2.322;2022-11-22T12:37:43;98662.72;;;11.78;45.47
22000;BME280;11164;48.818;2.322;2022-11-22T12:40:15;98663.78;;;11.77;47.15
22000;BME280;11164;48.818;2.322;2022-11-22T12:42:58;98658.47;;;12.14;43.21
22000;BME280;11164;48.818;2.322;2022-11-22T12:45:30;98661.09;;;12.04;45.24
22000;BME280;11164;48.818;2.322;2022-11-22T12:47:59;98657.44;;;11.66;47.27
22000;BME280;11164;48.818;2.322;2022-11-22T12:50:37;98669.94;;;11.50;46.72
22000;BME280;11164;48.818;2.322;2022-11-22T12:53:21;98670.53;;;11.79;44.07
22000;BME280;11164;48.818;2.322;2022-11-22T12:56:16;98671.38;;;11.36;44.92
22000;BME280;11164;48.818;2.322;2022-11-22T13:09:22;98671.94;;;11.82;43.51
22000;BME280;11164;48.818;2.322;2022-11-22T13:12:00;98687.09;;;11.88;43.12
22000;BME280;11164;48.818;2.322;2022-11-22T13:14:48;98674.63;;;11.82;42.46
22000;BME280;11164;48.818;2.322;2022-11-22T13:17:18;98675.25;;;12.16;46.26
22000;BME280;11164;48.818;2.322;2022-11-22T13:19:49;98671.13;;;11.59;46.25
22000;BME280;11164;48.818;2.322;2022-11-22T13:22:34;98670.09;;;11.66;43.40
22000;BME280;11164;48.818;2.322;2022-11-22T13:27:58;98678.00;;;11.94;45.88
22000;BME280;11164;48.818;2.322;2022-11-22T13:30:27;98676.25;;;11.83;46.34
22000;BME280;11164;48.818;2.322;2022-11-22T13:32:58;98686.75;;;11.79;46.23
22000;BME280;11164;48.818;2.322;2022-11-22T13:35:33;98687.56;;;11.80;46.13
22000;BME280;11164;48.818;2.322;2022-11-22T13:38:02;98685.28;;;11.94;45.44
22000;BME280;11164;48.818;2.322;2022-11-22T13:40:31;98687.94;;;11.67;46.36
22000;BME280;11164;48.818;2.322;2022-11-22T13:51:10;98688.19;;;11.65;45.43
22000;BME280;11164;48.818;2.322;2022-11-22T13:53:41;98702.44;;;11.82;45.02
22000;BME280;11164;48.818;2.322;2022-11-22T14:01:32;98673.16;;;12.24;42.76
22000;BME280;11164;48.818;2.322;2022-11-22T14:21:07;98668.59;;;12.02;44.47
22000;BME280;11164;48.818;2.322;2022-11-22T14:23:47;98671.94;;;11.82;44.33
22000;BME280;11164;48.818;2.322;2022-11-22T14:26:23;98669.22;;;11.82;44.56
22000;BME280;11164;48.818;2.322;2022-11-22T14:31:34;98674.50;;;11.94;45.62
22000;BME280;11164;48.818;2.322;2022-11-22T14:36:42;98683.66;;;11.71;45.93
22000;BME280;11164;48.818;2.322;2022-11-22T14:47:39;98675.97;;;11.57;46.15
22000;BME280;11164;48.818;2.322;2022-11-22T14:52:52;98671.63;;;11.78;45.54
22000;BME280;11164;48.818;2.322;2022-11-22T14:55:23;98678.00;;;11.94;45.36
22000;BME280;11164;48.818;2.322;2022-11-22T14:57:57;98672.25;;;11.86;45.11
22000;BME280;11164;48.818;2.322;2022-11-22T15:00:24;98678.34;;;11.76;45.74
22000;BME280;11164;48.818;2.322;2022-11-22T15:13:59;98668.84;;;11.95;43.85
22000;BME280;11164;48.818;2.322;2022-11-22T15:16:30;98671.19;;;11.87;45.52
22000;BME280;11164;48.818;2.322;2022-11-22T15:18:56;98678.09;;;11.77;45.58
22000;BME280;11164;48.818;2.322;2022-11-22T15:21:32;98682.13;;;11.75;45.21
22000;BME280;11164;48.818;2.322;2022-11-22T15:23:58;98680.31;;;11.63;45.70
22000;BME280;11164;48.818;2.322;2022-11-22T15:26:26;98675.38;;;11.77;45.55